sensor_id;sensor_type;location;lat;lon;timestamp;pressure;altitude;pressure_sealevel;temperature;humidity
31538;BME280;18147;51.952;6.146;2023-07-13T00:00:13;101286.03;;;17.71;100.00
31538;BME280;18147;51.952;6.146;2023-07-13T00:02:42;101282.34;;;17.51;100.00
31538;BME280;18147;51.952;6.146;2023-07-13T00:05:08;101282.34;;;17.51;100.00
31538;BME280;18147;51.952;6.146;2023-07-13T00:07:34;101288.34;;;17.54;100.00
31538;BME280;18147;51.952;6.146;2023-07-13T00:10:00;101286.56;;;17.44;100.00
31538;BME280;18147;51.952;6.146;2023-07-13T00:12:30;101283.53;;;17.37;100.00
31538;BME280;18147;51.952;6.146;2023-07-13T00:14:58;101287.03;;;17.17;100.00
31538;BME280;18147;51.952;6.146;2023-07-13T00:17:24;101293.50;;;17.25;100.00
31538;BME280;18147;51.952;6.146;2023-07-13T00:19:49;101290.28;;;17.31;100.00
31538;BME280;18147;51.952;6.146;2023-07-13T00:22:15;101297.41;;;17.32;100.00
31538;BME280;18147;51.952;6.146;2023-07-13T00:24:43;101295.59;;;17.22;100.00
31538;BME280;18147;51.952;6.146;2023-07-13T00:27:09;101299.75;;;17.26;100.00
31538;BME280;18147;51.952;6.146;2023-07-13T00:29:36;101292.72;;;17.14;100.00
31538;BME280;18147;51.952;6.146;2023-07-13T00:32:03;101296.00;;;17.17;100.00
31538;BME280;18147;51.952;6.146;2023-07-13T00:34:30;101292.50;;;17.26;100.00
31538;BME280;18147;51.952;6.146;2023-07-13T00:36:56;101299.19;;;17.22;100.00
31538;BME280;18147;51.952;6.146;2023-07-13T00:39:22;101305.41;;;17.23;100.00
31538;BME280;18147;51.952;6.146;2023-07-13T00:41:48;101303.97;;;17.19;100.00
31538;BME280;18147;51.952;6.146;2023-07-13T00:44:15;101300.84;;;17.02;100.00
31538;BME280;18147;51.952;6.146;2023-07-13T00:46:41;101302.41;;;17.05;100.00
31538;BME280;18147;51.952;6.146;2023-07-13T00:49:09;101294.56;;;17.13;100.00
31538;BME280;18147;51.952;6.146;2023-07-13T00:51:46;101297.28;;;17.02;100.00
31538;BME280;18147;51.952;6.146;2023-07-13T00:54:28;101304.13;;;17.06;100.00
31538;BME280;18147;51.952;6.146;2023-07-13T00:57:05;101294.22;;;16.95;100.00
31538;BME280;18147;51.952;6.146;2023-07-13T00:59:34;101289.31;;;17.00;100.00
31538;BME280;18147;51.952;6.146;2023-07-13T01:02:03;101295.94;;;16.96;100.00
31538;BME280;18147;51.952;6.146;2023-07-13T01:04:29;101299.84;;;17.03;100.00
31538;BME280;18147;51.952;6.146;2023-07-13T01:06:55;101297.78;;;16.96;100.00
31538;BME280;18147;51.952;6.146;2023-07-13T01:09:21;101302.88;;;17.10;100.00
31538;BME280;18147;51.952;6.146;2023-07-13T01:11:47;101308.69;;;16.94;100.00
31538;BME280;18147;51.952;6.146;2023-07-13T01:14:13;101304.16;;;16.95;100.00
31538;BME280;18147;51.952;6.146;2023-07-13T01:16:40;101303.16;;;16.96;100.00
31538;BME280;18147;51.952;6.146;2023-07-13T01:19:32;101301.31;;;16.96;100.00
31538;BME280;18147;51.952;6.146;2023-07-13T01:22:19;101298.28;;;16.90;100.00
31538;BME280;18147;51.952;6.146;2023-07-13T01:24:46;101304.19;;;16.83;100.00
31538;BME280;18147;51.952;6.146;2023-07-13T01:27:15;101311.28;;;16.85;100.00
31538;BME280;18147;51.952;6.146;2023-07-13T01:29:43;101315.22;;;16.69;100.00
31538;BME280;18147;51.952;6.146;2023-07-13T01:32:31;101308.84;;;16.70;100.00
31538;BME280;18147;51.952;6.146;2023-07-13T01:34:59;101307.88;;;16.71;100.00
31538;BME280;18147;51.952;6.146;2023-07-13T01:37:26;101308.97;;;16.69;100.00
31538;BME280;18147;51.952;6.146;2023-07-13T01:39:52;101311.03;;;16.65;100.00
31538;BME280;18147;51.952;6.146;2023-07-13T01:42:18;101314.09;;;16.61;100.00
31538;BME280;18147;51.952;6.146;2023-07-13T01:44:44;101307.38;;;16.55;100.00
31538;BME280;18147;51.952;6.146;2023-07-13T01:47:10;101303.38;;;16.49;100.00
31538;BME280;18147;51.952;6.146;2023-07-13T01:49:36;101296.38;;;16.36;100.00
31538;BME280;18147;51.952;6.146;2023-07-13T01:52:03;101296.53;;;16.23;100.00
31538;BME280;18147;51.952;6.146;2023-07-13T01:54:30;101292.47;;;16.51;100.00
31538;BME280;18147;51.952;6.146;2023-07-13T01:56:55;101294.91;;;16.54;100.00
31538;BME280;18147;51.952;6.146;2023-07-13T01:59:21;101295.16;;;16.40;100.00
31538;BME280;18147;51.952;6.146;2023-07-13T02:01:46;101298.00;;;16.38;100.00
31538;BME280;18147;51.952;6.146;2023-07-13T02:04:13;101294.31;;;16.39;100.00
31538;BME280;18147;51.952;6.146;2023-07-13T02:06:39;101303.03;;;16.31;100.00
31538;BME280;18147;51.952;6.146;2023-07-13T02:09:04;101307.78;;;16.39;100.00
31538;BME280;18147;51.952;6.146;2023-07-13T02:11:30;101305.81;;;16.30;100.00
31538;BME280;18147;51.952;6.146;2023-07-13T02:14:02;101297.63;;;16.20;100.00
31538;BME280;18147;51.952;6.146;2023-07-13T02:16:28;101301.06;;;16.22;100.00
31538;BME280;18147;51.952;6.146;2023-07-13T02:18:54;101295.56;;;16.13;100.00
31538;BME280;18147;51.952;6.146;2023-07-13T02:21:21;101303.25;;;16.17;100.00
31538;BME280;18147;51.952;6.146;2023-07-13T02:23:48;101308.66;;;16.17;100.00
31538;BME280;18147;51.952;6.146;2023-07-13T02:26:15;101296.41;;;16.13;100.00
31538;BME280;18147;51.952;6.146;2023-07-13T02:28:41;101287.97;;;16.07;100.00
31538;BME280;18147;51.952;6.146;2023-07-13T02:31:09;101306.19;;;16.03;100.00
31538;BME280;18147;51.952;6.146;2023-07-13T02:33:36;101309.97;;;16.00;100.00
31538;BME280;18147;51.952;6.146;2023-07-13T02:36:01;101315.75;;;16.07;100.00
31538;BME280;18147;51.952;6.146;2023-07-13T02:38:27;101313.28;;;16.15;100.00
31538;BME280;18147;51.952;6.146;2023-07-13T02:40:53;101308.16;;;16.12;100.00
31538;BME280;18147;51.952;6.146;2023-07-13T02:43:19;101314.13;;;16.16;100.00
31538;BME280;18147;51.952;6.146;2023-07-13T02:45:46;101312.56;;;16.13;100.00
31538;BME280;18147;51.952;6.146;2023-07-13T02:48:13;101322.69;;;15.87;100.00
31538;BME280;18147;51.952;6.146;2023-07-13T02:50:39;101318.38;;;15.96;100.00
31538;BME280;18147;51.952;6.146;2023-07-13T02:53:05;101316.47;;;15.98;100.00
31538;BME280;18147;51.952;6.146;2023-07-13T02:55:30;101317.53;;;15.84;100.00
31538;BME280;18147;51.952;6.146;2023-07-13T02:57:56;101311.53;;;15.80;100.00
31538;BME280;18147;51.952;6.146;2023-07-13T03:00:23;101323.88;;;15.72;100.00
31538;BME280;18147;51.952;6.146;2023-07-13T03:02:48;101327.69;;;15.92;100.00
31538;BME280;18147;51.952;6.146;2023-07-13T03:05:15;101333.88;;;15.81;100.00
31538;BME280;18147;51.952;6.146;2023-07-13T03:07:42;101335.50;;;15.84;100.00
31538;BME280;18147;51.952;6.146;2023-07-13T03:10:10;101334.78;;;15.93;100.00
31538;BME280;18147;51.952;6.146;2023-07-13T03:12:42;101337.97;;;15.87;100.00
31538;BME280;18147;51.952;6.146;2023-07-13T03:15:16;101332.09;;;15.93;100.00
31538;BME280;18147;51.952;6.146;2023-07-13T03:17:43;101336.72;;;15.91;100.00
31538;BME280;18147;51.952;6.146;2023-07-13T03:20:09;101336.84;;;15.89;100.00
31538;BME280;18147;51.952;6.146;2023-07-13T03:22:35;101338.56;;;15.90;100.00
31538;BME280;18147;51.952;6.146;2023-07-13T03:25:01;101353.25;;;15.62;100.00
31538;BME280;18147;51.952;6.146;2023-07-13T03:27:27;101347.13;;;15.60;100.00
31538;BME280;18147;51.952;6.146;2023-07-13T03:29:54;101354.03;;;15.75;100.00
31538;BME280;18147;51.952;6.146;2023-07-13T03:32:19;101356.88;;;15.74;100.00
31538;BME280;18147;51.952;6.146;2023-07-13T03:34:45;101345.59;;;15.69;100.00
31538;BME280;18147;51.952;6.146;2023-07-13T03:37:12;101352.41;;;15.62;100.00
31538;BME280;18147;51.952;6.146;2023-07-13T03:39:37;101352.34;;;15.74;100.00
31538;BME280;18147;51.952;6.146;2023-07-13T03:42:04;101353.81;;;15.67;100.00
31538;BME280;18147;51.952;6.146;2023-07-13T03:44:30;101357.72;;;15.74;100.00
31538;BME280;18147;51.952;6.146;2023-07-13T03:46:56;101358.69;;;15.73;100.00
31538;BME280;18147;51.952;6.146;2023-07-13T03:49:22;101368.13;;;15.79;100.00
31538;BME280;18147;51.952;6.146;2023-07-13T03:51:48;101368.47;;;15.74;100.00
31538;BME280;18147;51.952;6.146;2023-07-13T03:54:13;101365.31;;;15.80;100.00
31538;BME280;18147;51.952;6.146;2023-07-13T03:56:39;101368.50;;;15.86;100.00
31538;BME280;18147;51.952;6.146;2023-07-13T03:59:06;101358.53;;;16.21;100.00
31538;BME280;18147;51.952;6.146;2023-07-13T04:01:32;101358.06;;;16.27;100.00
31538;BME280;18147;51.952;6.146;2023-07-13T04:03:58;101361.84;;;16.14;100.00
31538;BME280;18147;51.952;6.146;2023-07-13T04:06:29;101360.88;;;16.60;100.00
31538;BME280;18147;51.952;6.146;2023-07-13T04:09:00;101350.22;;;16.69;100.00
31538;BME280;18147;51.952;6.146;2023-07-13T04:11:28;101357.72;;;17.20;100.00
31538;BME280;18147;51.952;6.146;2023-07-13T04:13:54;101360.56;;;17.72;100.00
31538;BME280;18147;51.952;6.146;2023-07-13T04:16:20;101351.47;;;18.35;100.00
31538;BME280;18147;51.952;6.146;2023-07-13T04:18:47;101354.94;;;18.78;100.00
31538;BME280;18147;51.952;6.146;2023-07-13T04:21:13;101360.88;;;19.31;97.76
31538;BME280;18147;51.952;6.146;2023-07-13T04:23:39;101357.47;;;19.78;94.70
31538;BME280;18147;51.952;6.146;2023-07-13T04:26:05;101353.56;;;20.09;88.82
31538;BME280;18147;51.952;6.146;2023-07-13T04:28:32;101353.25;;;20.69;85.21
31538;BME280;18147;51.952;6.146;2023-07-13T04:30:58;101344.63;;;21.01;82.50
31538;BME280;18147;51.952;6.146;2023-07-13T04:33:24;101351.50;;;20.95;80.62
31538;BME280;18147;51.952;6.146;2023-07-13T04:35:51;101346.75;;;21.25;79.58
31538;BME280;18147;51.952;6.146;2023-07-13T04:38:23;101351.22;;;21.44;79.06
31538;BME280;18147;51.952;6.146;2023-07-13T04:40:50;101354.28;;;21.67;76.40
31538;BME280;18147;51.952;6.146;2023-07-13T04:43:16;101348.28;;;22.59;72.77
31538;BME280;18147;51.952;6.146;2023-07-13T04:45:42;101363.94;;;22.99;70.40
31538;BME280;18147;51.952;6.146;2023-07-13T04:48:07;101355.09;;;23.06;69.68
31538;BME280;18147;51.952;6.146;2023-07-13T04:50:36;101356.44;;;23.02;69.14
31538;BME280;18147;51.952;6.146;2023-07-13T04:53:02;101362.63;;;23.44;67.83
31538;BME280;18147;51.952;6.146;2023-07-13T04:55:29;101361.94;;;22.75;68.63
31538;BME280;18147;51.952;6.146;2023-07-13T04:57:56;101371.59;;;21.30;73.04
31538;BME280;18147;51.952;6.146;2023-07-13T05:00:24;101376.38;;;21.72;75.26
31538;BME280;18147;51.952;6.146;2023-07-13T05:02:50;101376.78;;;21.41;75.81
31538;BME280;18147;51.952;6.146;2023-07-13T05:05:15;101378.00;;;21.02;78.33
31538;BME280;18147;51.952;6.146;2023-07-13T05:07:41;101381.69;;;19.70;86.51
31538;BME280;18147;51.952;6.146;2023-07-13T05:10:07;101392.06;;;20.03;86.48
31538;BME280;18147;51.952;6.146;2023-07-13T05:12:33;101393.22;;;19.91;88.15
31538;BME280;18147;51.952;6.146;2023-07-13T05:14:59;101395.78;;;19.92;89.52
31538;BME280;18147;51.952;6.146;2023-07-13T05:17:24;101404.44;;;19.57;92.63
31538;BME280;18147;51.952;6.146;2023-07-13T05:19:50;101398.03;;;19.29;95.79
31538;BME280;18147;51.952;6.146;2023-07-13T05:22:15;101404.97;;;19.32;97.43
31538;BME280;18147;51.952;6.146;2023-07-13T05:24:41;101406.78;;;19.12;100.00
31538;BME280;18147;51.952;6.146;2023-07-13T05:27:07;101403.09;;;19.03;100.00
31538;BME280;18147;51.952;6.146;2023-07-13T05:29:32;101407.44;;;18.85;100.00
31538;BME280;18147;51.952;6.146;2023-07-13T05:31:58;101407.84;;;18.80;100.00
31538;BME280;18147;51.952;6.146;2023-07-13T05:34:24;101406.78;;;18.93;100.00
31538;BME280;18147;51.952;6.146;2023-07-13T05:36:49;101413.81;;;18.53;100.00
31538;BME280;18147;51.952;6.146;2023-07-13T05:39:16;101415.38;;;18.77;100.00
31538;BME280;18147;51.952;6.146;2023-07-13T05:41:41;101413.28;;;18.90;100.00
31538;BME280;18147;51.952;6.146;2023-07-13T05:44:07;101413.03;;;18.93;100.00
31538;BME280;18147;51.952;6.146;2023-07-13T05:46:32;101417.94;;;19.19;100.00
31538;BME280;18147;51.952;6.146;2023-07-13T05:48:59;101419.69;;;18.89;100.00
31538;BME280;18147;51.952;6.146;2023-07-13T05:51:24;101420.00;;;18.96;100.00
31538;BME280;18147;51.952;6.146;2023-07-13T05:53:50;101427.09;;;18.66;100.00
31538;BME280;18147;51.952;6.146;2023-07-13T05:56:16;101428.19;;;18.54;100.00
31538;BME280;18147;51.952;6.146;2023-07-13T05:58:41;101435.19;;;18.66;100.00
31538;BME280;18147;51.952;6.146;2023-07-13T06:01:11;101433.44;;;18.76;100.00
31538;BME280;18147;51.952;6.146;2023-07-13T06:03:37;101438.16;;;18.84;100.00
31538;BME280;18147;51.952;6.146;2023-07-13T06:06:07;101445.38;;;19.14;100.00
31538;BME280;18147;51.952;6.146;2023-07-13T06:08:33;101441.34;;;18.99;100.00
31538;BME280;18147;51.952;6.146;2023-07-13T06:11:11;101446.38;;;19.13;100.00
31538;BME280;18147;51.952;6.146;2023-07-13T06:13:38;101445.16;;;18.96;100.00
31538;BME280;18147;51.952;6.146;2023-07-13T06:16:04;101451.41;;;19.37;100.00
31538;BME280;18147;51.952;6.146;2023-07-13T06:18:31;101447.69;;;19.19;100.00
31538;BME280;18147;51.952;6.146;2023-07-13T06:20:57;101459.13;;;19.51;100.00
31538;BME280;18147;51.952;6.146;2023-07-13T06:23:23;101455.91;;;19.77;100.00
31538;BME280;18147;51.952;6.146;2023-07-13T06:25:49;101459.88;;;19.92;100.00
31538;BME280;18147;51.952;6.146;2023-07-13T06:28:14;101454.41;;;20.40;100.00
31538;BME280;18147;51.952;6.146;2023-07-13T06:30:40;101459.41;;;20.55;98.83
31538;BME280;18147;51.952;6.146;2023-07-13T06:33:06;101456.91;;;20.81;96.77
31538;BME280;18147;51.952;6.146;2023-07-13T06:35:32;101459.38;;;20.64;100.00
31538;BME280;18147;51.952;6.146;2023-07-13T06:37:58;101459.81;;;21.34;95.43
31538;BME280;18147;51.952;6.146;2023-07-13T06:40:23;101464.38;;;21.34;93.15
31538;BME280;18147;51.952;6.146;2023-07-13T06:42:49;101465.13;;;21.54;91.27
31538;BME280;18147;51.952;6.146;2023-07-13T06:45:14;101476.06;;;21.80;91.46
31538;BME280;18147;51.952;6.146;2023-07-13T06:47:40;101475.13;;;22.07;87.30
31538;BME280;18147;51.952;6.146;2023-07-13T06:50:07;101464.09;;;22.26;86.47
31538;BME280;18147;51.952;6.146;2023-07-13T06:52:33;101465.81;;;22.53;87.16
31538;BME280;18147;51.952;6.146;2023-07-13T06:54:59;101458.38;;;22.55;84.63
31538;BME280;18147;51.952;6.146;2023-07-13T06:57:24;101463.81;;;22.55;84.59
31538;BME280;18147;51.952;6.146;2023-07-13T06:59:50;101468.91;;;22.32;84.90
31538;BME280;18147;51.952;6.146;2023-07-13T07:02:15;101472.09;;;22.10;87.25
31538;BME280;18147;51.952;6.146;2023-07-13T07:04:41;101472.16;;;22.36;88.55
31538;BME280;18147;51.952;6.146;2023-07-13T07:07:07;101476.16;;;22.49;84.44
31538;BME280;18147;51.952;6.146;2023-07-13T07:09:32;101480.63;;;22.85;83.59
31538;BME280;18147;51.952;6.146;2023-07-13T07:11:58;101475.63;;;22.46;83.65
31538;BME280;18147;51.952;6.146;2023-07-13T07:14:23;101483.38;;;22.15;86.76
31538;BME280;18147;51.952;6.146;2023-07-13T07:16:49;101481.91;;;21.39;93.38
31538;BME280;18147;51.952;6.146;2023-07-13T07:19:16;101478.94;;;21.33;92.28
31538;BME280;18147;51.952;6.146;2023-07-13T07:21:41;101482.66;;;21.59;93.95
31538;BME280;18147;51.952;6.146;2023-07-13T07:24:07;101495.94;;;21.35;96.81
31538;BME280;18147;51.952;6.146;2023-07-13T07:26:33;101487.06;;;21.60;93.95
31538;BME280;18147;51.952;6.146;2023-07-13T07:28:59;101485.00;;;21.90;93.30
31538;BME280;18147;51.952;6.146;2023-07-13T07:31:24;101488.69;;;22.07;91.09
31538;BME280;18147;51.952;6.146;2023-07-13T07:33:50;101491.56;;;21.87;91.61
31538;BME280;18147;51.952;6.146;2023-07-13T07:36:16;101486.38;;;21.76;92.03
31538;BME280;18147;51.952;6.146;2023-07-13T07:38:43;101486.13;;;21.87;91.09
31538;BME280;18147;51.952;6.146;2023-07-13T07:41:08;101483.88;;;21.65;91.47
31538;BME280;18147;51.952;6.146;2023-07-13T07:43:34;101493.44;;;21.69;93.32
31538;BME280;18147;51.952;6.146;2023-07-13T07:46:00;101498.88;;;21.14;97.62
31538;BME280;18147;51.952;6.146;2023-07-13T07:48:26;101483.44;;;21.42;94.27
31538;BME280;18147;51.952;6.146;2023-07-13T07:50:52;101489.53;;;21.71;92.15
31538;BME280;18147;51.952;6.146;2023-07-13T07:53:17;101486.59;;;21.65;92.23
31538;BME280;18147;51.952;6.146;2023-07-13T07:55:43;101484.09;;;21.26;95.12
31538;BME280;18147;51.952;6.146;2023-07-13T07:58:10;101494.31;;;21.42;96.50
31538;BME280;18147;51.952;6.146;2023-07-13T08:00:35;101490.25;;;21.18;97.30
31538;BME280;18147;51.952;6.146;2023-07-13T08:03:01;101487.28;;;21.49;96.12
31538;BME280;18147;51.952;6.146;2023-07-13T08:05:28;101481.41;;;21.54;95.43
31538;BME280;18147;51.952;6.146;2023-07-13T08:07:54;101481.47;;;21.62;93.56
31538;BME280;18147;51.952;6.146;2023-07-13T08:10:20;101487.22;;;21.77;93.18
31538;BME280;18147;51.952;6.146;2023-07-13T08:12:46;101484.59;;;22.20;91.90
31538;BME280;18147;51.952;6.146;2023-07-13T08:15:14;101487.16;;;21.86;90.08
31538;BME280;18147;51.952;6.146;2023-07-13T08:17:40;101490.69;;;22.14;89.14
31538;BME280;18147;51.952;6.146;2023-07-13T08:20:06;101486.41;;;22.12;89.30
31538;BME280;18147;51.952;6.146;2023-07-13T08:22:32;101486.59;;;22.01;87.85
31538;BME280;18147;51.952;6.146;2023-07-13T08:24:59;101487.69;;;21.72;90.36
31538;BME280;18147;51.952;6.146;2023-07-13T08:27:26;101495.09;;;21.52;93.54
31538;BME280;18147;51.952;6.146;2023-07-13T08:29:53;101491.25;;;21.55;92.29
31538;BME280;18147;51.952;6.146;2023-07-13T08:32:20;101490.84;;;21.67;92.34
31538;BME280;18147;51.952;6.146;2023-07-13T08:34:46;101498.47;;;21.82;89.61
31538;BME280;18147;51.952;6.146;2023-07-13T08:37:12;101490.31;;;21.82;90.43
31538;BME280;18147;51.952;6.146;2023-07-13T08:39:37;101488.91;;;23.01;88.82
31538;BME280;18147;51.952;6.146;2023-07-13T08:45:17;101474.94;;;24.05;77.84
31538;BME280;18147;51.952;6.146;2023-07-13T08:47:49;101476.44;;;24.08;78.86
31538;BME280;18147;51.952;6.146;2023-07-13T08:50:21;101480.06;;;24.41;75.96
31538;BME280;18147;51.952;6.146;2023-07-13T08:52:49;101475.59;;;23.91;74.20
31538;BME280;18147;51.952;6.146;2023-07-13T08:55:21;101470.66;;;23.86;74.95
31538;BME280;18147;51.952;6.146;2023-07-13T08:58:11;101473.22;;;23.96;74.05
31538;BME280;18147;51.952;6.146;2023-07-13T09:00:45;101473.28;;;23.62;74.89
31538;BME280;18147;51.952;6.146;2023-07-13T09:03:23;101463.47;;;24.59;73.01
31538;BME280;18147;51.952;6.146;2023-07-13T09:05:56;101465.22;;;24.99;72.41
31538;BME280;18147;51.952;6.146;2023-07-13T09:13:38;101463.75;;;25.36;65.45
31538;BME280;18147;51.952;6.146;2023-07-13T09:16:09;101461.06;;;24.80;67.92
31538;BME280;18147;51.952;6.146;2023-07-13T09:18:46;101464.34;;;25.15;68.71
31538;BME280;18147;51.952;6.146;2023-07-13T09:23:42;101462.47;;;24.27;69.01
31538;BME280;18147;51.952;6.146;2023-07-13T09:26:14;101470.16;;;23.91;69.62
31538;BME280;18147;51.952;6.146;2023-07-13T09:28:44;101474.75;;;24.39;71.00
31538;BME280;18147;51.952;6.146;2023-07-13T09:31:16;101469.47;;;25.10;67.78
31538;BME280;18147;51.952;6.146;2023-07-13T09:33:42;101476.09;;;24.35;65.35
31538;BME280;18147;51.952;6.146;2023-07-13T09:36:29;101479.16;;;24.32;66.46
31538;BME280;18147;51.952;6.146;2023-07-13T09:41:50;101469.28;;;24.47;65.09
31538;BME280;18147;51.952;6.146;2023-07-13T09:44:28;101473.91;;;24.39;61.58
31538;BME280;18147;51.952;6.146;2023-07-13T09:46:56;101461.84;;;24.97;62.44
31538;BME280;18147;51.952;6.146;2023-07-13T09:49:26;101475.25;;;24.43;61.93
31538;BME280;18147;51.952;6.146;2023-07-13T09:52:04;101482.94;;;24.47;62.32
31538;BME280;18147;51.952;6.146;2023-07-13T09:54:33;101477.94;;;24.67;62.47
31538;BME280;18147;51.952;6.146;2023-07-13T09:57:00;101478.50;;;25.10;62.71
31538;BME280;18147;51.952;6.146;2023-07-13T09:59:32;101463.16;;;25.09;60.80
31538;BME280;18147;51.952;6.146;2023-07-13T10:01:58;101476.53;;;24.79;61.54
31538;BME280;18147;51.952;6.146;2023-07-13T10:04:34;101525.34;;;23.50;69.59
31538;BME280;18147;51.952;6.146;2023-07-13T10:07:12;101536.31;;;21.01;100.00
31538;BME280;18147;51.952;6.146;2023-07-13T10:09:38;101542.13;;;20.68;100.00
31538;BME280;18147;51.952;6.146;2023-07-13T10:12:15;101544.03;;;20.95;100.00
31538;BME280;18147;51.952;6.146;2023-07-13T10:14:42;101540.69;;;21.11;100.00
31538;BME280;18147;51.952;6.146;2023-07-13T10:17:12;101530.22;;;21.26;100.00
31538;BME280;18147;51.952;6.146;2023-07-13T10:19:41;101524.56;;;21.47;100.00
31538;BME280;18147;51.952;6.146;2023-07-13T10:25:00;101530.91;;;22.55;100.00
31538;BME280;18147;51.952;6.146;2023-07-13T10:27:34;101522.41;;;22.84;100.00
31538;BME280;18147;51.952;6.146;2023-07-13T10:30:23;101535.41;;;23.16;100.00
31538;BME280;18147;51.952;6.146;2023-07-13T10:32:53;101535.47;;;23.32;97.72
31538;BME280;18147;51.952;6.146;2023-07-13T10:35:21;101537.03;;;23.00;94.90
31538;BME280;18147;51.952;6.146;2023-07-13T10:37:55;101524.75;;;23.31;100.00
31538;BME280;18147;51.952;6.146;2023-07-13T10:40:36;101519.13;;;23.66;100.00
31538;BME280;18147;51.952;6.146;2023-07-13T10:43:25;101519.19;;;24.07;100.00
31538;BME280;18147;51.952;6.146;2023-07-13T10:45:52;101516.25;;;23.76;98.59
31538;BME280;18147;51.952;6.146;2023-07-13T10:48:20;101515.06;;;23.78;99.41
31538;BME280;18147;51.952;6.146;2023-07-13T10:50:50;101523.78;;;23.48;100.00
31538;BME280;18147;51.952;6.146;2023-07-13T10:53:28;101533.31;;;23.86;96.33
31538;BME280;18147;51.952;6.146;2023-07-13T10:55:57;101534.53;;;24.16;90.40
31538;BME280;18147;51.952;6.146;2023-07-13T10:58:36;101532.84;;;24.72;92.20
31538;BME280;18147;51.952;6.146;2023-07-13T11:03:32;101534.88;;;24.05;82.85
31538;BME280;18147;51.952;6.146;2023-07-13T11:06:07;101543.94;;;23.63;82.70
31538;BME280;18147;51.952;6.146;2023-07-13T11:08:57;101544.41;;;23.50;82.60
31538;BME280;18147;51.952;6.146;2023-07-13T11:18:50;101547.38;;;23.65;89.62
31538;BME280;18147;51.952;6.146;2023-07-13T11:21:26;101553.97;;;23.55;89.45
31538;BME280;18147;51.952;6.146;2023-07-13T11:24:01;101552.09;;;23.55;86.94
31538;BME280;18147;51.952;6.146;2023-07-13T11:26:41;101560.19;;;22.87;92.98
31538;BME280;18147;51.952;6.146;2023-07-13T11:31:53;101558.63;;;23.78;88.30
31538;BME280;18147;51.952;6.146;2023-07-13T11:34:33;101552.22;;;23.45;89.81
31538;BME280;18147;51.952;6.146;2023-07-13T11:37:00;101551.06;;;24.15;87.29
31538;BME280;18147;51.952;6.146;2023-07-13T11:39:31;101562.84;;;24.48;89.58
31538;BME280;18147;51.952;6.146;2023-07-13T11:42:01;101547.53;;;24.55;81.69
31538;BME280;18147;51.952;6.146;2023-07-13T11:44:29;101545.97;;;24.69;83.86
31538;BME280;18147;51.952;6.146;2023-07-13T11:46:58;101546.28;;;24.74;81.19
31538;BME280;18147;51.952;6.146;2023-07-13T11:49:30;101548.44;;;23.81;80.63
31538;BME280;18147;51.952;6.146;2023-07-13T11:51:57;101561.88;;;23.82;80.94
31538;BME280;18147;51.952;6.146;2023-07-13T11:56:52;101563.56;;;23.67;83.24
31538;BME280;18147;51.952;6.146;2023-07-13T11:59:19;101564.44;;;23.41;79.00
31538;BME280;18147;51.952;6.146;2023-07-13T12:01:51;101562.13;;;23.63;79.83
31538;BME280;18147;51.952;6.146;2023-07-13T12:04:30;101566.63;;;24.47;73.72
31538;BME280;18147;51.952;6.146;2023-07-13T12:07:05;101555.84;;;24.78;73.81
31538;BME280;18147;51.952;6.146;2023-07-13T12:09:33;101553.41;;;24.99;71.03
31538;BME280;18147;51.952;6.146;2023-07-13T12:12:02;101553.41;;;25.16;71.41
31538;BME280;18147;51.952;6.146;2023-07-13T12:14:28;101544.53;;;25.14;70.98
31538;BME280;18147;51.952;6.146;2023-07-13T12:16:55;101547.78;;;25.01;72.01
31538;BME280;18147;51.952;6.146;2023-07-13T12:19:28;101553.50;;;24.50;72.06
31538;BME280;18147;51.952;6.146;2023-07-13T12:21:56;101554.69;;;24.48;70.82
31538;BME280;18147;51.952;6.146;2023-07-13T12:24:22;101547.69;;;24.53;72.00
31538;BME280;18147;51.952;6.146;2023-07-13T12:27:00;101551.22;;;24.05;71.90
31538;BME280;18147;51.952;6.146;2023-07-13T12:29:26;101563.50;;;24.25;75.46
31538;BME280;18147;51.952;6.146;2023-07-13T12:31:52;101556.41;;;24.41;78.66
31538;BME280;18147;51.952;6.146;2023-07-13T12:34:21;101555.50;;;24.73;81.78
31538;BME280;18147;51.952;6.146;2023-07-13T12:37:10;101558.13;;;25.30;76.31
31538;BME280;18147;51.952;6.146;2023-07-13T12:39:46;101555.25;;;25.23;72.69
31538;BME280;18147;51.952;6.146;2023-07-13T12:44:43;101560.56;;;25.17;71.31
31538;BME280;18147;51.952;6.146;2023-07-13T12:47:13;101563.84;;;24.88;71.53
31538;BME280;18147;51.952;6.146;2023-07-13T12:49:48;101571.31;;;25.10;73.41
31538;BME280;18147;51.952;6.146;2023-07-13T12:52:19;101557.88;;;24.84;71.80
31538;BME280;18147;51.952;6.146;2023-07-13T12:54:58;101562.47;;;25.16;71.19
31538;BME280;18147;51.952;6.146;2023-07-13T12:57:25;101553.78;;;24.88;70.48
31538;BME280;18147;51.952;6.146;2023-07-13T12:59:53;101565.88;;;25.02;69.98
31538;BME280;18147;51.952;6.146;2023-07-13T13:04:50;101548.09;;;25.62;70.02
31538;BME280;18147;51.952;6.146;2023-07-13T13:07:16;101546.47;;;25.83;69.04
31538;BME280;18147;51.952;6.146;2023-07-13T13:09:45;101549.94;;;26.00;67.28
31538;BME280;18147;51.952;6.146;2023-07-13T13:12:13;101544.44;;;26.31;66.30
31538;BME280;18147;51.952;6.146;2023-07-13T13:14:38;101537.19;;;26.62;65.60
31538;BME280;18147;51.952;6.146;2023-07-13T13:17:18;101533.09;;;26.34;66.45
31538;BME280;18147;51.952;6.146;2023-07-13T13:19:44;101547.28;;;26.15;65.17
31538;BME280;18147;51.952;6.146;2023-07-13T13:22:10;101561.25;;;25.58;65.02
31538;BME280;18147;51.952;6.146;2023-07-13T13:24:36;101562.34;;;24.61;64.81
31538;BME280;18147;51.952;6.146;2023-07-13T13:27:02;101555.38;;;24.42;63.92